Time;durP1;ratioP1;P1;durP2;ratioP2;P2;SDS_P1;SDS_P2;PMS_P1;PMS_P2;Temp;Humidity;BMP_temperature;BMP_pressure;BME280_temperature;BME280_humidity;BME280_pressure;Samples;Min_cycle;Max_cycle;Signal;HPM_P1;HPM_P2
2022/08/12 00:44:20;;;;;;;6.60;5.67;;;20.80;95.60;;;;;;5088930;28;20433;-36
2022/08/12 00:46:52;;;;;;;6.47;5.80;;;20.70;96.00;;;;;;5088833;28;20472;-36
2022/08/12 00:49:19;;;;;;;6.40;5.90;;;20.60;96.50;;;;;;5088789;28;20423;-36
2022/08/12 00:52:05;;;;;;;6.00;5.50;;;20.60;97.00;;;;;;5089282;28;20422;-36
2022/08/12 00:54:35;;;;;;;9.80;6.97;;;20.50;97.10;;;;;;5089269;28;20425;-36
2022/08/12 00:57:04;;;;;;;9.03;6.50;;;20.60;96.70;;;;;;5088439;28;20454;-36
2022/08/12 00:59:31;;;;;;;7.30;6.70;;;20.60;96.90;;;;;;5088759;28;20521;-37
2022/08/12 01:02:00;;;;;;;7.43;6.73;;;20.60;96.70;;;;;;5089124;28;20426;-36
2022/08/12 01:12:44;;;;;;;7.90;7.20;;;20.50;97.60;;;;;;5092660;28;20511;-36
2022/08/12 01:15:11;;;;;;;7.77;7.17;;;20.40;97.90;;;;;;5092733;28;20810;-36
2022/08/12 01:17:42;;;;;;;7.97;7.37;;;20.30;98.20;;;;;;5091906;28;20486;-36
2022/08/12 01:20:17;;;;;;;7.10;6.60;;;20.30;98.40;;;;;;5091843;28;20513;-36
2022/08/12 01:23:07;;;;;;;8.53;7.33;;;20.20;98.70;;;;;;5092434;28;20551;-36
2022/08/12 01:25:37;;;;;;;7.80;7.20;;;20.20;99.10;;;;;;5080674;28;20901;-36
2022/08/12 01:28:07;;;;;;;8.37;7.57;;;20.10;99.40;;;;;;5091888;28;20564;-36
2022/08/12 01:30:35;;;;;;;7.60;7.00;;;20.00;99.60;;;;;;5092586;28;20415;-36
2022/08/12 01:33:04;;;;;;;8.03;7.23;;;19.90;99.90;;;;;;5092073;28;20471;-37
2022/08/12 01:35:33;;;;;;;8.43;7.43;;;19.90;99.90;;;;;;5092471;28;21102;-36
2022/08/12 01:38:03;;;;;;;9.00;8.23;;;19.80;99.90;;;;;;5091431;28;20888;-36
2022/08/12 01:40:37;;;;;;;8.00;7.33;;;19.80;99.90;;;;;;5092371;28;20426;-36
2022/08/12 01:43:09;;;;;;;8.47;7.77;;;19.70;99.90;;;;;;5091947;28;20430;-37
2022/08/12 01:45:44;;;;;;;7.77;7.07;;;19.60;99.90;;;;;;5091990;28;20461;-36
2022/08/12 01:48:15;;;;;;;7.50;6.90;;;19.60;99.90;;;;;;5091548;28;20426;-37
2022/08/12 01:51:01;;;;;;;8.00;7.30;;;19.60;99.90;;;;;;5092136;28;20422;-36
2022/08/12 01:53:52;;;;;;;8.40;7.60;;;19.50;99.90;;;;;;5092012;28;20422;-36
2022/08/12 01:56:23;;;;;;;7.50;6.80;;;19.50;99.90;;;;;;5084052;28;20427;-36
2022/08/12 02:01:38;;;;;;;8.93;8.13;;;19.40;99.90;;;;;;5091870;28;20479;-36
2022/08/12 02:13:31;;;;;;;8.80;7.77;;;19.20;99.90;;;;;;5091557;28;20422;-36
2022/08/12 02:16:07;;;;;;;10.03;9.03;;;19.10;99.90;;;;;;5091638;28;21066;-36
2022/08/12 02:18:46;;;;;;;9.40;8.50;;;19.10;99.90;;;;;;5088663;28;21052;-36
2022/08/12 02:21:43;;;;;;;9.90;8.90;;;19.10;99.90;;;;;;5090588;28;20426;-37
2022/08/12 02:24:14;;;;;;;10.17;9.27;;;19.00;99.90;;;;;;5091513;28;20438;-36
2022/08/12 02:26:43;;;;;;;9.50;8.70;;;19.00;99.90;;;;;;5090792;28;20458;-36
2022/08/12 02:29:11;;;;;;;9.70;8.77;;;18.90;99.90;;;;;;5091053;28;20473;-36
2022/08/12 02:31:38;;;;;;;9.60;8.80;;;18.90;99.90;;;;;;5091220;28;20426;-36
2022/08/12 02:34:04;;;;;;;9.50;8.80;;;18.80;99.90;;;;;;5091271;28;20430;-36
2022/08/12 02:36:31;;;;;;;10.03;9.03;;;18.80;99.90;;;;;;5090838;28;20430;-36
2022/08/12 02:38:58;;;;;;;13.57;9.47;;;18.70;99.90;;;;;;5090977;28;20410;-36
2022/08/12 02:41:25;;;;;;;10.30;9.30;;;18.70;99.90;;;;;;5091039;28;20430;-36
2022/08/12 02:43:57;;;;;;;9.70;8.90;;;18.70;99.90;;;;;;5090724;28;20426;-36
2022/08/12 02:46:31;;;;;;;9.53;8.83;;;18.60;99.90;;;;;;5091006;28;20449;-36
2022/08/12 02:49:43;;;;;;;9.90;9.00;;;18.60;99.90;;;;;;5090675;28;20793;-37
2022/08/12 02:52:10;;;;;;;9.70;8.80;;;18.50;99.90;;;;;;5088268;28;20469;-36
2022/08/12 02:54:37;;;;;;;10.90;9.80;;;18.50;99.90;;;;;;5090973;28;20516;-36
2022/08/12 02:57:05;;;;;;;9.27;8.50;;;18.50;99.90;;;;;;5090156;28;20519;-36
2022/08/12 02:59:33;;;;;;;9.50;8.70;;;18.40;99.90;;;;;;5090853;28;20426;-36
2022/08/12 03:02:04;;;;;;;10.80;9.50;;;18.40;99.90;;;;;;5090550;28;20461;-36
2022/08/12 03:04:37;;;;;;;9.90;9.00;;;18.40;99.90;;;;;;5090303;28;20442;-36
2022/08/12 03:07:21;;;;;;;9.40;8.60;;;18.40;99.90;;;;;;5090155;28;20430;-36
2022/08/12 03:09:54;;;;;;;9.53;8.77;;;18.40;99.90;;;;;;5090664;28;20517;-36
2022/08/12 03:12:21;;;;;;;9.63;8.80;;;18.30;99.90;;;;;;5090564;28;20436;-36
2022/08/12 03:14:50;;;;;;;10.73;8.90;;;18.30;99.90;;;;;;5090303;28;20547;-36
2022/08/12 03:17:22;;;;;;;10.77;9.67;;;18.30;99.90;;;;;;5089796;28;20741;-36
2022/08/12 03:19:53;;;;;;;9.30;8.50;;;18.30;99.90;;;;;;5089636;28;20431;-36
2022/08/12 03:22:22;;;;;;;10.90;9.80;;;18.30;99.90;;;;;;5090296;28;20433;-36
2022/08/12 03:24:48;;;;;;;10.57;9.67;;;18.30;99.90;;;;;;5090046;28;20491;-35
2022/08/12 03:27:15;;;;;;;11.00;9.90;;;18.20;99.90;;;;;;5089639;28;20529;-36
2022/08/12 03:29:45;;;;;;;10.27;9.43;;;18.20;99.90;;;;;;5089113;28;20434;-36
2022/08/12 03:32:12;;;;;;;10.37;9.27;;;18.10;99.90;;;;;;5090319;28;20435;-37
2022/08/12 03:34:40;;;;;;;10.43;9.50;;;18.00;99.90;;;;;;5090080;28;20438;-36
2022/08/12 03:37:06;;;;;;;12.13;10.80;;;18.10;99.90;;;;;;5089486;28;20833;-37
2022/08/12 03:42:40;;;;;;;11.00;10.03;;;18.10;99.90;;;;;;5089953;28;20427;-36
2022/08/12 04:02:00;;;;;;;10.87;9.90;;;17.90;99.90;;;;;;5089582;28;20811;-36
2022/08/12 04:04:32;;;;;;;11.57;10.43;;;17.80;99.90;;;;;;5089643;28;20446;-36
2022/08/12 04:07:00;;;;;;;11.87;10.87;;;17.80;99.90;;;;;;5088771;28;20192;-36
2022/08/12 04:09:26;;;;;;;12.67;10.67;;;17.80;99.90;;;;;;5089747;28;20493;-36
2022/08/12 04:14:36;;;;;;;10.93;10.03;;;17.60;99.90;;;;;;5089667;28;20699;-36
2022/08/12 04:17:02;;;;;;;11.40;10.30;;;17.60;99.90;;;;;;5088755;28;20958;-36
2022/08/12 04:19:29;;;;;;;10.70;9.80;;;17.70;99.90;;;;;;5088406;28;21024;-36
2022/08/12 04:21:55;;;;;;;11.13;10.20;;;17.80;99.90;;;;;;5089480;28;20464;-36
2022/08/12 04:24:24;;;;;;;10.90;10.00;;;17.80;99.90;;;;;;5089554;28;20461;-36
2022/08/12 04:26:50;;;;;;;11.37;10.23;;;17.80;99.90;;;;;;5088766;28;20470;-36
2022/08/12 04:29:18;;;;;;;11.37;10.27;;;17.90;99.90;;;;;;5089380;28;20441;-36
2022/08/12 04:31:44;;;;;;;11.50;10.40;;;18.00;99.90;;;;;;5089476;28;20431;-36
2022/08/12 04:34:10;;;;;;;10.80;9.90;;;18.00;99.90;;;;;;5088974;28;20426;-36
2022/08/12 04:36:38;;;;;;;12.33;10.70;;;18.00;99.90;;;;;;5088768;28;20668;-37
2022/08/12 04:39:06;;;;;;;10.87;9.97;;;18.10;99.90;;;;;;5089094;28;20421;-36
2022/08/12 04:41:33;;;;;;;12.07;10.87;;;18.00;99.90;;;;;;5089715;28;20529;-37
2022/08/12 04:43:59;;;;;;;11.90;10.90;;;18.00;99.90;;;;;;5100692;28;20421;-36
2022/08/12 04:46:25;;;;;;;10.97;10.07;;;17.90;99.90;;;;;;5089113;28;20859;-36
2022/08/12 04:48:51;;;;;;;11.27;10.20;;;18.00;99.90;;;;;;5090550;28;20264;-36
2022/08/12 04:51:19;;;;;;;11.40;10.33;;;18.00;99.90;;;;;;5101341;28;20176;-36
2022/08/12 04:53:46;;;;;;;10.67;9.67;;;18.10;99.90;;;;;;5093056;28;20410;-36
2022/08/12 04:56:13;;;;;;;11.30;10.30;;;18.00;99.90;;;;;;5094064;28;20759;-37
2022/08/12 04:58:39;;;;;;;12.37;11.13;;;18.10;99.90;;;;;;5107348;28;20471;-36
2022/08/12 05:01:05;;;;;;;13.13;11.33;;;18.20;99.90;;;;;;5093042;28;20418;-36
2022/08/12 05:03:34;;;;;;;13.13;11.40;;;18.30;99.90;;;;;;5092987;28;20426;-36
2022/08/12 05:06:00;;;;;;;11.13;10.23;;;18.50;99.90;;;;;;5092891;28;20450;-36
2022/08/12 05:08:26;;;;;;;11.03;10.10;;;18.60;99.90;;;;;;5092241;28;20433;-36
2022/08/12 05:10:52;;;;;;;13.03;10.73;;;18.70;99.90;;;;;;5092895;28;20458;-36
2022/08/12 05:13:39;;;;;;;11.77;10.77;;;18.70;99.90;;;;;;5092849;28;20434;-36
2022/08/12 05:16:07;;;;;;;10.80;9.83;;;18.70;99.90;;;;;;5092899;28;20850;-36
2022/08/12 05:18:37;;;;;;;12.43;10.90;;;18.70;99.90;;;;;;5091956;28;20477;-36
2022/08/12 05:21:07;;;;;;;10.57;9.53;;;18.80;99.90;;;;;;5091301;28;20873;-36
2022/08/12 05:23:36;;;;;;;14.63;10.67;;;18.90;99.90;;;;;;5084662;28;20426;-36
2022/08/12 05:26:03;;;;;;;9.80;9.00;;;18.90;99.90;;;;;;5092615;28;20418;-36
2022/08/12 05:28:29;;;;;;;10.10;9.23;;;19.00;99.90;;;;;;5091850;28;20875;-36
2022/08/12 05:30:57;;;;;;;11.13;10.03;;;19.10;99.90;;;;;;5092501;28;20509;-36
2022/08/12 05:33:34;;;;;;;10.30;9.50;;;19.20;99.90;;;;;;5092710;28;20517;-36
2022/08/12 05:36:00;;;;;;;9.53;8.73;;;19.30;99.90;;;;;;5092515;28;20472;-36
2022/08/12 05:41:19;;;;;;;8.93;8.00;;;19.50;99.90;;;;;;5102885;28;20434;-36
2022/08/12 05:43:52;;;;;;;12.60;8.83;;;19.50;99.90;;;;;;5104037;28;20429;-36
2022/08/12 05:46:20;;;;;;;8.57;7.87;;;19.60;99.90;;;;;;5079386;28;20509;-36
2022/08/12 05:48:48;;;;;;;9.10;8.30;;;19.60;99.90;;;;;;5091453;28;20442;-36
2022/08/12 05:51:14;;;;;;;9.93;8.83;;;19.70;99.90;;;;;;5085780;28;20430;-36
2022/08/12 05:53:40;;;;;;;9.03;8.07;;;19.80;99.90;;;;;;5101221;27;20929;-36
2022/08/12 05:56:20;;;;;;;10.40;8.00;;;20.00;99.90;;;;;;5099998;28;20445;-36
2022/08/12 05:58:47;;;;;;;8.70;7.90;;;20.20;99.90;;;;;;5090121;28;20457;-36
2022/08/12 06:01:13;;;;;;;10.50;7.27;;;20.40;99.90;;;;;;5091410;28;20426;-36
2022/08/12 06:03:40;;;;;;;7.97;7.33;;;20.60;99.90;;;;;;5089927;28;20446;-37
2022/08/12 06:06:06;;;;;;;8.80;8.10;;;20.80;99.90;;;;;;5106366;28;20433;-36
2022/08/12 06:08:34;;;;;;;10.30;8.40;;;21.00;99.60;;;;;;5090759;28;21218;-36
2022/08/12 06:11:01;;;;;;;8.77;7.97;;;21.30;99.40;;;;;;5091433;28;20195;-36
2022/08/12 06:13:28;;;;;;;8.37;7.20;;;21.40;98.70;;;;;;5091029;28;20436;-36
2022/08/12 06:15:53;;;;;;;7.93;7.17;;;21.60;98.60;;;;;;5091287;28;20963;-36
2022/08/12 06:18:19;;;;;;;9.33;7.43;;;21.70;98.20;;;;;;5090089;28;20454;-36
2022/08/12 06:20:48;;;;;;;7.90;7.20;;;21.90;97.50;;;;;;5089993;28;20650;-36
2022/08/12 06:23:14;;;;;;;8.27;6.90;;;22.10;96.90;;;;;;5091427;28;20269;-36
2022/08/12 06:25:42;;;;;;;7.80;7.10;;;22.20;96.90;;;;;;5091441;28;20419;-36
2022/08/12 06:28:18;;;;;;;7.63;6.80;;;22.30;96.40;;;;;;5089978;28;20422;-36
2022/08/12 06:30:47;;;;;;;7.10;6.40;;;22.50;96.00;;;;;;5089437;28;20426;-36
2022/08/12 06:33:13;;;;;;;6.63;6.07;;;22.70;95.20;;;;;;5091172;28;20427;-36
2022/08/12 06:35:43;;;;;;;7.40;5.47;;;22.90;93.20;;;;;;5091217;28;20422;-37
2022/08/12 06:38:16;;;;;;;6.40;5.60;;;23.10;92.40;;;;;;5089932;28;20223;-36
2022/08/12 06:43:27;;;;;;;8.17;5.63;;;23.40;92.30;;;;;;5090000;28;20504;-36
2022/08/12 06:45:56;;;;;;;5.60;5.10;;;23.60;91.20;;;;;;5090980;28;20425;-37
2022/08/12 06:48:26;;;;;;;8.57;5.40;;;23.70;91.10;;;;;;5090453;28;20546;-36
2022/08/12 06:50:54;;;;;;;5.77;5.20;;;23.80;90.20;;;;;;5090969;28;20500;-36
2022/08/12 06:53:20;;;;;;;5.50;5.00;;;23.90;90.50;;;;;;5091094;28;20426;-36
2022/08/12 06:55:46;;;;;;;5.90;5.40;;;24.00;90.40;;;;;;5090649;28;21097;-37
2022/08/12 06:58:13;;;;;;;5.90;5.50;;;24.00;89.40;;;;;;5090074;28;20469;-36
2022/08/12 07:00:42;;;;;;;6.10;5.60;;;24.00;89.80;;;;;;5090625;28;20597;-36
2022/08/12 07:03:08;;;;;;;6.80;6.20;;;24.10;90.00;;;;;;5090721;28;20456;-37
2022/08/12 07:05:35;;;;;;;6.10;5.50;;;24.20;90.20;;;;;;5090412;28;20845;-37
2022/08/12 07:08:00;;;;;;;9.00;5.70;;;24.40;89.20;;;;;;5089883;28;20495;-36
2022/08/12 07:10:27;;;;;;;7.77;6.00;;;24.50;87.30;;;;;;5090362;28;20430;-36
2022/08/12 07:12:54;;;;;;;6.20;5.80;;;24.50;86.00;;;;;;5090494;28;20198;-36
2022/08/12 07:15:23;;;;;;;9.33;5.83;;;24.70;86.20;;;;;;5090492;28;20773;-36
2022/08/12 07:17:52;;;;;;;6.07;5.53;;;24.70;85.40;;;;;;5089594;28;20469;-37
2022/08/12 07:20:18;;;;;;;7.40;6.50;;;24.70;84.50;;;;;;5075664;28;20429;-37
2022/08/12 07:22:44;;;;;;;8.20;5.90;;;24.80;84.80;;;;;;5090094;28;20531;-36
2022/08/12 07:27:54;;;;;;;6.53;5.87;;;24.70;85.50;;;;;;5087362;28;20187;-36
2022/08/12 07:30:21;;;;;;;7.10;5.80;;;24.80;85.70;;;;;;5090246;28;20786;-36
2022/08/12 07:32:50;;;;;;;6.17;5.57;;;24.80;87.50;;;;;;5090133;28;20259;-36
2022/08/12 07:35:16;;;;;;;5.70;5.20;;;24.90;85.70;;;;;;5089673;28;20513;-36
2022/08/12 07:37:43;;;;;;;8.50;5.87;;;25.00;85.00;;;;;;5089102;28;20556;-36
2022/08/12 07:40:10;;;;;;;9.77;6.50;;;25.10;85.60;;;;;;5089887;28;21031;-36
2022/08/12 07:42:38;;;;;;;6.03;5.20;;;25.10;85.60;;;;;;5089525;28;20476;-36
2022/08/12 07:45:06;;;;;;;6.37;5.70;;;25.20;86.30;;;;;;5089839;28;20766;-36
2022/08/12 07:47:33;;;;;;;9.83;5.77;;;25.30;84.70;;;;;;5088046;28;20972;-37
2022/08/12 07:50:07;;;;;;;6.07;5.57;;;25.30;83.50;;;;;;5089540;28;20418;-36
2022/08/12 07:52:34;;;;;;;6.57;5.97;;;25.40;83.30;;;;;;5090179;28;20436;-37
2022/08/12 07:55:01;;;;;;;6.37;5.70;;;25.40;83.30;;;;;;5089832;28;20426;-36
2022/08/12 07:57:27;;;;;;;7.10;5.80;;;25.50;84.30;;;;;;5089089;28;20462;-37
2022/08/12 07:59:52;;;;;;;6.03;5.63;;;25.40;82.80;;;;;;5089832;28;20452;-36
2022/08/12 08:02:18;;;;;;;5.60;5.10;;;25.40;83.40;;;;;;5089531;28;20184;-36
2022/08/12 08:04:56;;;;;;;5.43;4.90;;;25.40;82.50;;;;;;5089442;28;20196;-37
2022/08/12 08:07:24;;;;;;;9.00;4.70;;;25.40;82.90;;;;;;5089069;28;20222;-36
2022/08/12 08:09:52;;;;;;;5.77;4.80;;;25.40;82.30;;;;;;5089737;28;20426;-36
2022/08/12 08:15:03;;;;;;;5.00;4.60;;;25.40;81.60;;;;;;5089256;28;20947;-36
2022/08/12 08:17:29;;;;;;;6.30;4.83;;;25.50;80.70;;;;;;5088496;28;20523;-37
2022/08/12 08:19:54;;;;;;;6.17;5.57;;;25.50;80.40;;;;;;5088026;28;20427;-36
2022/08/12 08:22:23;;;;;;;5.83;5.33;;;25.50;81.10;;;;;;5089380;28;20180;-37
2022/08/12 08:24:57;;;;;;;5.20;4.80;;;25.50;81.30;;;;;;5089431;28;20184;-37
2022/08/12 08:27:24;;;;;;;5.20;4.70;;;25.60;80.70;;;;;;5088666;28;20438;-37
2022/08/12 08:29:50;;;;;;;4.80;4.30;;;25.70;78.50;;;;;;5089663;28;20426;-36
2022/08/12 08:32:15;;;;;;;4.77;4.37;;;25.70;77.90;;;;;;5089419;28;20439;-37
2022/08/12 08:34:44;;;;;;;4.60;4.20;;;25.70;78.50;;;;;;5089366;28;20418;-36
2022/08/12 08:37:14;;;;;;;6.57;4.67;;;25.70;78.00;;;;;;5088535;28;20295;-36
2022/08/12 08:39:40;;;;;;;4.87;4.47;;;25.80;77.30;;;;;;5089391;28;20422;-37
2022/08/12 08:44:51;;;;;;;4.50;4.03;;;25.90;76.70;;;;;;5089304;28;20479;-37
2022/08/12 08:47:16;;;;;;;8.10;4.53;;;26.00;75.40;;;;;;5088866;28;20959;-36
2022/08/12 08:49:42;;;;;;;5.50;4.07;;;26.00;74.60;;;;;;5088904;28;20813;-36
2022/08/12 08:52:10;;;;;;;7.33;4.30;;;26.00;75.30;;;;;;5089312;28;20287;-36
2022/08/12 08:54:36;;;;;;;3.90;3.33;;;26.10;72.80;;;;;;5088944;28;20283;-36
2022/08/12 08:57:06;;;;;;;5.33;3.43;;;26.20;69.80;;;;;;5088464;28;20501;-36
2022/08/12 08:59:32;;;;;;;7.97;3.70;;;26.20;69.40;;;;;;5089332;28;20780;-36
2022/08/12 09:01:58;;;;;;;3.63;3.33;;;26.30;69.50;;;;;;5089175;28;20489;-36
2022/08/12 09:04:24;;;;;;;5.83;3.70;;;26.40;69.20;;;;;;5087711;28;20231;-36
2022/08/12 09:06:55;;;;;;;5.07;3.60;;;26.40;68.90;;;;;;5088529;28;20224;-37
2022/08/12 09:09:21;;;;;;;3.60;3.30;;;26.40;69.00;;;;;;5089033;28;20192;-36
2022/08/12 09:14:31;;;;;;;4.50;2.90;;;26.60;66.00;;;;;;5088935;28;21115;-36
2022/08/12 09:16:57;;;;;;;3.40;3.10;;;26.60;65.80;;;;;;5088451;28;20553;-36
2022/08/12 09:19:25;;;;;;;4.70;3.17;;;26.80;63.20;;;;;;5087325;28;20245;-36
2022/08/12 09:21:51;;;;;;;5.40;3.20;;;26.80;64.00;;;;;;5089042;28;20418;-37
2022/08/12 09:24:18;;;;;;;4.87;2.97;;;26.90;63.30;;;;;;5088735;28;20437;-36
2022/08/12 09:26:47;;;;;;;4.23;3.00;;;27.00;60.80;;;;;;5088302;28;20424;-36
2022/08/12 09:29:14;;;;;;;4.20;2.93;;;27.10;61.20;;;;;;5091129;28;20421;-37
2022/08/12 09:31:40;;;;;;;3.40;3.10;;;27.20;60.60;;;;;;5092369;28;20433;-37
2022/08/12 09:34:09;;;;;;;5.60;3.27;;;27.30;62.90;;;;;;5092251;28;20600;-37
2022/08/12 09:36:37;;;;;;;2.70;2.50;;;27.30;59.40;;;;;;5091737;28;20949;-36
2022/08/12 09:39:07;;;;;;;4.30;2.90;;;27.50;58.20;;;;;;5092193;28;20430;-37
2022/08/12 09:41:41;;;;;;;3.90;3.33;;;27.60;57.90;;;;;;5092370;28;20426;-37
2022/08/12 09:47:12;;;;;;;3.87;2.73;;;27.60;55.50;;;;;;5068401;28;20435;-37
2022/08/12 09:49:37;;;;;;;2.90;2.70;;;27.80;56.20;;;;;;5069155;28;20833;-37
2022/08/12 09:52:03;;;;;;;3.50;3.20;;;27.80;55.90;;;;;;5071375;28;20246;-37
2022/08/12 09:54:30;;;;;;;3.43;2.90;;;27.90;56.10;;;;;;5092160;28;20921;-37
2022/08/12 09:56:56;;;;;;;3.13;2.87;;;27.90;55.80;;;;;;5091138;28;20224;-37
2022/08/12 09:59:22;;;;;;;3.00;2.80;;;28.00;55.30;;;;;;5091989;28;20492;-36
2022/08/12 10:01:48;;;;;;;5.67;2.90;;;28.10;55.00;;;;;;5091891;28;20618;-36
2022/08/12 10:04:14;;;;;;;4.30;3.97;;;28.10;54.90;;;;;;5090520;28;20430;-37
2022/08/12 10:06:43;;;;;;;4.73;3.57;;;28.30;54.60;;;;;;5091535;28;20229;-37
2022/08/12 10:09:09;;;;;;;4.20;3.50;;;28.30;55.20;;;;;;5091639;28;20783;-37
2022/08/12 10:14:21;;;;;;;3.87;3.57;;;28.50;55.90;;;;;;5091699;28;20847;-36
2022/08/12 10:16:48;;;;;;;4.10;3.30;;;28.60;55.70;;;;;;5089663;28;20509;-36
2022/08/12 10:19:15;;;;;;;4.03;3.63;;;28.70;55.00;;;;;;5090267;28;20184;-37
2022/08/12 10:21:41;;;;;;;4.33;3.93;;;28.80;55.90;;;;;;5090244;28;20800;-37
2022/08/12 10:24:09;;;;;;;4.60;3.80;;;28.80;55.90;;;;;;5091158;28;20426;-37
2022/08/12 10:32:14;;;;;;;3.70;3.40;;;29.00;57.00;;;;;;5091434;28;20427;-36
2022/08/12 10:34:41;;;;;;;3.67;3.40;;;29.20;56.80;;;;;;5091041;28;20497;-38
2022/08/12 10:37:07;;;;;;;4.47;4.07;;;29.30;53.80;;;;;;5090696;28;21209;-36
2022/08/12 10:39:36;;;;;;;4.03;3.40;;;29.40;55.80;;;;;;5090731;28;20460;-36
2022/08/12 10:44:55;;;;;;;5.73;3.20;;;29.40;53.40;;;;;;5088457;28;20505;-37
2022/08/12 10:47:21;;;;;;;3.70;3.13;;;29.40;52.10;;;;;;5089113;28;20423;-37
2022/08/12 10:49:48;;;;;;;3.60;3.30;;;29.50;52.80;;;;;;5091128;28;20575;-37
2022/08/12 10:52:14;;;;;;;5.50;3.03;;;29.50;52.90;;;;;;5090997;28;20177;-37
2022/08/12 10:54:41;;;;;;;3.63;3.30;;;29.60;51.40;;;;;;5091049;28;20423;-36
2022/08/12 10:57:07;;;;;;;3.50;3.17;;;29.60;51.20;;;;;;5090075;28;20952;-37
2022/08/12 10:59:33;;;;;;;3.60;3.30;;;29.70;50.60;;;;;;5090618;28;20414;-37
2022/08/12 11:02:00;;;;;;;3.60;3.30;;;29.60;50.10;;;;;;5090793;28;21073;-37
2022/08/12 11:04:28;;;;;;;3.80;3.50;;;29.70;51.60;;;;;;5089369;28;20445;-36
2022/08/12 11:06:54;;;;;;;12.37;3.37;;;29.70;51.80;;;;;;5089961;28;20426;-37
2022/08/12 11:09:29;;;;;;;3.53;3.33;;;29.80;53.40;;;;;;5090687;28;20444;-37
2022/08/12 11:12:01;;;;;;;5.13;4.00;;;29.90;50.20;;;;;;5090245;28;20180;-36
2022/08/12 11:14:27;;;;;;;3.17;2.97;;;30.00;50.70;;;;;;5089337;28;20509;-37
2022/08/12 11:17:01;;;;;;;4.90;3.27;;;30.00;48.60;;;;;;5089669;28;20571;-37
2022/08/12 11:19:28;;;;;;;6.03;3.27;;;29.90;47.90;;;;;;5088962;28;20418;-36
2022/08/12 11:21:55;;;;;;;4.80;3.33;;;29.90;47.10;;;;;;5090437;28;20444;-36
2022/08/12 11:24:24;;;;;;;3.17;2.87;;;29.90;48.80;;;;;;5090350;28;21107;-36
2022/08/12 11:26:51;;;;;;;5.20;3.37;;;29.90;48.60;;;;;;5089598;28;20579;-37
2022/08/12 11:29:22;;;;;;;3.30;3.10;;;30.00;48.20;;;;;;5090314;28;20422;-36
2022/08/12 11:31:47;;;;;;;3.27;3.00;;;30.00;46.30;;;;;;5090405;28;20454;-36
2022/08/12 11:34:13;;;;;;;3.30;3.00;;;30.10;47.20;;;;;;5090115;28;20501;-37
2022/08/12 11:36:52;;;;;;;3.30;3.10;;;30.10;46.60;;;;;;5089713;28;20709;-37
2022/08/12 11:39:18;;;;;;;3.53;3.23;;;30.10;46.00;;;;;;5088537;28;20187;-37
2022/08/12 11:41:44;;;;;;;3.03;2.83;;;30.10;49.30;;;;;;5090114;28;20429;-37
2022/08/12 11:44:10;;;;;;;3.67;2.90;;;30.20;48.70;;;;;;5089813;28;20422;-37
2022/08/12 11:46:36;;;;;;;3.43;3.20;;;30.30;45.50;;;;;;5089804;28;20178;-36
2022/08/12 11:49:03;;;;;;;3.83;3.13;;;30.40;48.80;;;;;;5089623;28;20218;-37
2022/08/12 11:51:29;;;;;;;3.47;3.17;;;30.40;48.90;;;;;;5089027;28;21008;-36
2022/08/12 11:53:55;;;;;;;4.10;3.23;;;30.50;49.10;;;;;;5089439;28;20930;-37
2022/08/12 11:56:21;;;;;;;3.60;3.30;;;30.50;47.60;;;;;;5089547;28;20433;-37
2022/08/12 11:58:47;;;;;;;3.60;3.30;;;30.50;47.30;;;;;;5088868;28;20215;-37
2022/08/12 12:01:13;;;;;;;3.53;3.20;;;30.50;46.50;;;;;;5089684;28;20186;-37
2022/08/12 12:03:39;;;;;;;2.97;2.77;;;30.40;45.80;;;;;;5089699;28;20423;-38
2022/08/12 12:06:05;;;;;;;4.10;3.57;;;30.40;46.30;;;;;;5089388;28;20908;-36
2022/08/12 12:08:31;;;;;;;3.70;3.40;;;30.40;45.00;;;;;;5088899;28;20462;-36
2022/08/12 12:10:56;;;;;;;3.60;3.30;;;30.30;48.00;;;;;;5089694;28;20196;-37
2022/08/12 12:13:22;;;;;;;3.93;3.10;;;30.40;46.60;;;;;;5089559;28;20844;-37
2022/08/12 12:15:48;;;;;;;4.80;3.23;;;30.50;45.80;;;;;;5089638;28;20257;-37
2022/08/12 12:18:23;;;;;;;5.60;3.57;;;30.50;44.80;;;;;;5088802;28;20204;-37
2022/08/12 12:20:50;;;;;;;3.27;3.07;;;30.50;45.80;;;;;;5087818;28;20494;-37
2022/08/12 12:23:16;;;;;;;3.43;2.90;;;30.50;47.20;;;;;;5089429;28;20458;-36
2022/08/12 12:25:41;;;;;;;3.70;3.00;;;30.60;46.70;;;;;;5089401;28;20431;-37
2022/08/12 12:28:07;;;;;;;4.53;2.83;;;30.60;43.70;;;;;;5088766;28;20770;-37
2022/08/12 12:30:34;;;;;;;2.93;2.73;;;30.70;45.00;;;;;;5089481;28;20234;-37
2022/08/12 12:33:00;;;;;;;2.60;2.40;;;30.70;45.00;;;;;;5089385;28;20195;-37
2022/08/12 12:35:26;;;;;;;3.10;2.50;;;30.80;45.30;;;;;;5089039;28;20432;-37
2022/08/12 12:38:03;;;;;;;2.77;2.57;;;30.90;44.80;;;;;;5088450;28;20316;-37
2022/08/12 12:40:34;;;;;;;3.40;2.50;;;30.90;45.20;;;;;;5088079;28;20191;-37
2022/08/12 12:43:05;;;;;;;3.37;2.77;;;30.90;42.30;;;;;;5070991;28;20556;-37
2022/08/12 12:45:35;;;;;;;4.73;2.60;;;30.90;44.70;;;;;;5087955;28;20420;-37
2022/08/12 12:48:04;;;;;;;2.53;2.30;;;30.90;44.70;;;;;;5087019;28;20441;-37
2022/08/12 12:50:36;;;;;;;4.13;2.63;;;30.90;43.30;;;;;;5087813;28;20480;-37
2022/08/12 12:53:03;;;;;;;3.30;3.00;;;30.90;41.60;;;;;;5087932;28;20422;-37
2022/08/12 12:55:30;;;;;;;4.00;2.73;;;30.90;43.00;;;;;;5089084;28;20426;-37
2022/08/12 12:57:57;;;;;;;3.00;2.40;;;30.90;43.90;;;;;;5088464;28;20468;-37
2022/08/12 13:00:24;;;;;;;3.10;2.80;;;30.90;44.10;;;;;;5087489;28;20528;-37
2022/08/12 13:02:54;;;;;;;3.13;2.67;;;30.90;42.10;;;;;;5091217;28;20564;-37
2022/08/12 13:05:31;;;;;;;3.63;2.63;;;30.90;41.20;;;;;;5091533;28;20442;-36
2022/08/12 13:07:59;;;;;;;3.93;2.77;;;30.90;41.50;;;;;;5092461;28;20414;-37
2022/08/12 13:10:26;;;;;;;2.87;2.67;;;30.80;41.10;;;;;;5092688;28;20455;-37
2022/08/12 13:12:53;;;;;;;3.40;2.47;;;30.80;41.80;;;;;;5091437;28;20438;-36
2022/08/12 13:15:20;;;;;;;2.93;2.50;;;30.80;43.10;;;;;;5091366;28;20500;-37
2022/08/12 13:17:48;;;;;;;2.60;2.27;;;30.90;43.50;;;;;;5092073;28;20462;-37
2022/08/12 13:20:16;;;;;;;3.23;2.93;;;30.90;41.50;;;;;;5091683;28;20419;-37
2022/08/12 13:22:43;;;;;;;3.20;2.10;;;30.90;43.60;;;;;;5092673;28;20507;-37
2022/08/12 13:25:09;;;;;;;3.33;2.70;;;31.00;42.70;;;;;;5092465;28;20426;-37
2022/08/12 13:27:40;;;;;;;3.20;2.50;;;31.00;42.00;;;;;;5091730;28;20417;-37
2022/08/12 13:30:12;;;;;;;2.83;2.33;;;30.90;42.80;;;;;;5092618;28;20189;-37
2022/08/12 13:32:53;;;;;;;2.73;2.40;;;30.90;42.20;;;;;;5090950;28;20511;-36
2022/08/12 13:35:19;;;;;;;5.43;2.43;;;31.00;42.90;;;;;;5092410;28;20605;-37
2022/08/12 13:38:04;;;;;;;3.47;2.40;;;30.90;41.80;;;;;;5090039;28;20498;-37
2022/08/12 13:40:32;;;;;;;3.20;2.90;;;31.00;41.20;;;;;;5092580;28;20426;-36
2022/08/12 13:43:00;;;;;;;2.83;2.53;;;31.10;42.70;;;;;;5090942;28;20414;-36
2022/08/12 13:45:27;;;;;;;3.10;2.90;;;31.00;40.80;;;;;;5092395;28;20427;-37
2022/08/12 13:47:55;;;;;;;2.60;2.40;;;31.00;41.90;;;;;;5091451;28;20574;-36
2022/08/12 13:50:35;;;;;;;3.20;2.93;;;31.00;41.50;;;;;;5091536;28;20461;-37
2022/08/12 13:53:10;;;;;;;2.17;1.93;;;31.00;40.80;;;;;;5071495;28;20767;-37
2022/08/12 13:55:37;;;;;;;3.00;2.63;;;30.90;40.30;;;;;;5088216;28;20437;-36
2022/08/12 13:58:04;;;;;;;5.30;3.00;;;30.90;41.20;;;;;;5091305;28;20465;-36
2022/08/12 14:00:32;;;;;;;3.50;3.00;;;30.90;42.10;;;;;;5092013;28;20421;-36
2022/08/12 14:02:58;;;;;;;6.23;2.80;;;30.90;41.90;;;;;;5091660;28;20418;-37
2022/08/12 14:05:25;;;;;;;3.20;2.90;;;30.80;43.00;;;;;;5091695;28;20438;-37
2022/08/12 14:07:57;;;;;;;4.23;2.67;;;30.80;42.60;;;;;;5091193;28;20517;-37
2022/08/12 14:10:35;;;;;;;3.80;2.47;;;30.80;40.50;;;;;;5091669;28;20426;-37
2022/08/12 14:13:11;;;;;;;2.83;2.50;;;30.80;41.10;;;;;;5091845;28;20478;-37
2022/08/12 14:15:48;;;;;;;4.63;3.30;;;30.70;41.80;;;;;;5094562;28;20432;-37
2022/08/12 14:18:27;;;;;;;4.30;3.00;;;30.80;42.00;;;;;;5093962;28;21028;-37
2022/08/12 14:20:57;;;;;;;2.33;2.13;;;30.80;42.50;;;;;;5101111;28;20418;-37
2022/08/12 14:23:24;;;;;;;2.80;2.60;;;30.80;42.10;;;;;;5098336;28;20466;-36
2022/08/12 14:25:50;;;;;;;3.10;2.40;;;30.80;42.50;;;;;;5096993;28;20422;-36
2022/08/12 14:28:18;;;;;;;2.80;2.60;;;30.90;41.90;;;;;;5090710;28;20471;-37
2022/08/12 14:30:52;;;;;;;3.73;3.07;;;30.90;42.60;;;;;;5087204;28;20537;-37
2022/08/12 14:33:22;;;;;;;2.80;2.60;;;30.90;41.60;;;;;;5090618;28;20537;-37
2022/08/12 14:35:50;;;;;;;13.20;3.00;;;30.90;43.30;;;;;;5090141;28;20449;-37
2022/08/12 14:38:30;;;;;;;3.70;2.80;;;30.80;42.50;;;;;;5095148;28;20477;-36
2022/08/12 14:41:07;;;;;;;5.00;2.90;;;30.90;40.90;;;;;;5089061;28;20464;-37
2022/08/12 14:43:36;;;;;;;3.20;2.40;;;30.80;41.30;;;;;;5086297;28;20440;-37
2022/08/12 14:46:11;;;;;;;3.13;2.83;;;30.80;42.70;;;;;;5092039;28;20969;-36
2022/08/12 14:48:38;;;;;;;4.43;2.50;;;30.70;43.00;;;;;;5099425;28;20436;-36